South Porcupine, Canada
Current Conditions -  °F | °C
As of 11:00 AM on Thursday 29 Jan 2015 (Local Time) from CYTS Reporting Station
Light Snow Light Snow  
Wind Chill: 11°   Ceiling: 700
Heat Index: 23°   Visibility: 1mi
Dew Point: 19°   Wind: 13mph
Humidity: 86%   Direction: 180°S
Pressure: 29.73"   Gusts: NA
Location:  48.49°N, 81.21°W
Report Text: CYTS 291600Z 18011KT 1SM -SN BKN007 OVC015 M05/M07 A2973 RMK SN4SC3SC1 VIS VRB 3/4-1 1/2 SLP087
Loading
Personal Weather Stations






























Interactive Weather Map New forecast layout! Learn more

10-Day Weather Forecast

Advertisements
Track Severe Weather on mobile